Time;durP1;ratioP1;P1;durP2;ratioP2;P2;SDS_P1;SDS_P2;PMS_P1;PMS_P2;Temp;Humidity;BMP_temperature;BMP_pressure;BME280_temperature;BME280_humidity;BME280_pressure;Samples;Min_cycle;Max_cycle;Signal;HPM_P1;HPM_P2
2023/01/26 00:00:54;;;;;;;2.28;1.00;;;18.30;52.30;;;;;;6096359;23;20191;-85
2023/01/26 00:03:21;;;;;;;5.53;1.30;;;18.30;52.30;;;;;;6095353;23;20487;-85
2023/01/26 00:05:47;;;;;;;3.45;1.10;;;18.30;52.40;;;;;;6120115;23;20182;-85
2023/01/26 00:08:13;;;;;;;3.15;1.10;;;18.30;52.50;;;;;;6119939;23;20140;-86
2023/01/26 00:10:40;;;;;;;3.72;1.17;;;18.30;52.50;;;;;;6096726;23;20178;-85
2023/01/26 00:13:09;;;;;;;5.78;0.98;;;18.20;52.50;;;;;;6095667;23;20195;-85
2023/01/26 00:15:35;;;;;;;5.55;1.35;;;18.20;52.50;;;;;;6144635;23;20143;-85
2023/01/26 00:18:01;;;;;;;3.22;1.00;;;18.20;52.50;;;;;;6095524;23;20519;-85
2023/01/26 00:20:30;;;;;;;2.65;1.02;;;18.20;52.60;;;;;;6120133;23;20187;-84
2023/01/26 00:22:59;;;;;;;3.15;1.10;;;18.20;52.60;;;;;;6096597;23;20459;-85
2023/01/26 00:25:26;;;;;;;3.85;1.40;;;18.20;52.70;;;;;;6119161;23;20175;-85
2023/01/26 00:27:51;;;;;;;5.60;1.27;;;18.20;52.70;;;;;;6119734;23;20136;-85
2023/01/26 00:30:19;;;;;;;3.20;1.17;;;18.20;52.70;;;;;;6120162;23;20174;-85
2023/01/26 00:32:47;;;;;;;2.85;1.00;;;18.20;52.70;;;;;;6095416;23;20151;-85
2023/01/26 00:35:13;;;;;;;3.20;0.80;;;18.20;52.70;;;;;;6119790;23;20136;-85
2023/01/26 00:37:43;;;;;;;4.30;1.02;;;18.20;53.30;;;;;;6143602;23;20470;-85
2023/01/26 00:40:10;;;;;;;4.18;1.23;;;18.20;52.70;;;;;;6144025;23;20489;-86
2023/01/26 00:42:35;;;;;;;3.75;1.60;;;18.20;52.60;;;;;;6095695;23;20155;-84
2023/01/26 00:45:04;;;;;;;6.75;1.17;;;18.20;52.70;;;;;;6095232;23;20210;-85
2023/01/26 00:47:30;;;;;;;3.33;1.20;;;18.20;52.70;;;;;;6144737;23;20136;-85
2023/01/26 00:49:56;;;;;;;3.15;1.10;;;18.20;52.80;;;;;;6120300;23;20163;-85
2023/01/26 00:52:22;;;;;;;2.47;0.98;;;18.20;52.70;;;;;;6096235;23;20205;-85
2023/01/26 00:54:47;;;;;;;5.40;1.20;;;18.20;52.80;;;;;;6144714;23;20132;-85
2023/01/26 00:57:19;;;;;;;3.67;1.30;;;18.20;52.80;;;;;;6119690;23;20147;-85
2023/01/26 00:59:45;;;;;;;3.40;1.27;;;18.20;52.80;;;;;;6120764;23;20184;-84
2023/01/26 01:02:14;;;;;;;2.65;1.10;;;18.20;52.80;;;;;;6095336;23;20587;-85
2023/01/26 01:04:41;;;;;;;2.17;0.85;;;18.10;52.80;;;;;;6119396;23;20155;-84
2023/01/26 01:07:07;;;;;;;1.65;1.10;;;18.10;52.80;;;;;;6095755;23;20242;-84
2023/01/26 01:09:34;;;;;;;4.00;1.38;;;18.10;52.80;;;;;;6095356;23;20158;-84
2023/01/26 01:12:00;;;;;;;1.90;1.33;;;18.10;52.80;;;;;;6095276;23;20195;-85
2023/01/26 01:14:25;;;;;;;3.22;1.10;;;18.10;52.80;;;;;;6096366;23;20599;-85
2023/01/26 01:16:51;;;;;;;3.83;1.10;;;18.10;52.80;;;;;;6095285;23;20219;-85
2023/01/26 01:19:17;;;;;;;2.92;0.90;;;18.10;52.90;;;;;;6095596;23;20575;-85
2023/01/26 01:21:45;;;;;;;5.25;1.10;;;18.10;52.90;;;;;;6095223;23;20154;-85
2023/01/26 01:24:12;;;;;;;2.13;1.30;;;18.10;52.90;;;;;;6118899;23;20132;-85
2023/01/26 01:26:37;;;;;;;1.75;0.90;;;18.10;52.90;;;;;;6095337;23;20156;-84
2023/01/26 01:29:03;;;;;;;2.22;0.95;;;18.10;52.80;;;;;;6096011;23;20155;-85
2023/01/26 01:31:30;;;;;;;3.92;1.10;;;18.10;52.80;;;;;;6119398;23;20163;-85
2023/01/26 01:33:56;;;;;;;3.33;1.23;;;18.10;52.80;;;;;;6094898;23;20154;-84
2023/01/26 01:36:22;;;;;;;4.40;1.30;;;18.10;52.80;;;;;;6094861;23;20171;-85
2023/01/26 01:38:48;;;;;;;2.80;1.10;;;18.10;52.90;;;;;;6118970;23;20154;-85
2023/01/26 01:41:16;;;;;;;3.40;1.20;;;18.00;52.80;;;;;;6142736;23;20131;-85
2023/01/26 01:43:42;;;;;;;2.92;1.10;;;18.10;52.90;;;;;;6094515;23;20246;-84
2023/01/26 01:46:32;;;;;;;4.78;1.13;;;18.10;52.80;;;;;;6094714;23;20156;-85
2023/01/26 01:49:02;;;;;;;3.92;1.33;;;18.10;52.80;;;;;;6142867;23;20138;-85
2023/01/26 01:51:32;;;;;;;3.38;1.23;;;18.10;52.80;;;;;;6118903;23;20163;-84
2023/01/26 01:54:01;;;;;;;2.97;1.45;;;18.10;52.80;;;;;;6118467;23;20151;-85
2023/01/26 01:56:30;;;;;;;3.17;1.23;;;18.10;52.90;;;;;;6119604;23;20135;-85
2023/01/26 01:58:57;;;;;;;5.22;1.13;;;18.10;52.80;;;;;;6119283;23;20148;-84
2023/01/26 02:01:24;;;;;;;2.42;1.10;;;18.00;52.80;;;;;;6093789;23;20489;-86
2023/01/26 02:03:51;;;;;;;3.33;1.23;;;18.00;52.80;;;;;;6094358;23;20155;-85
2023/01/26 02:06:25;;;;;;;1.73;1.10;;;18.10;52.80;;;;;;6143629;23;20131;-85
2023/01/26 02:08:52;;;;;;;1.92;1.27;;;18.10;52.90;;;;;;6096417;23;20160;-85
2023/01/26 02:11:31;;;;;;;2.38;1.10;;;18.10;52.90;;;;;;6117960;23;20171;-84
2023/01/26 02:13:57;;;;;;;4.13;1.27;;;18.10;53.00;;;;;;6143864;23;20178;-84
2023/01/26 02:16:23;;;;;;;3.67;1.17;;;18.10;52.90;;;;;;6095376;23;20143;-85
2023/01/26 02:18:53;;;;;;;2.33;1.10;;;18.10;52.90;;;;;;6142639;23;20190;-85
2023/01/26 02:21:20;;;;;;;1.90;0.95;;;18.10;52.90;;;;;;6118929;23;20148;-85
2023/01/26 02:23:58;;;;;;;3.08;1.27;;;18.10;53.00;;;;;;6093979;23;20221;-85
2023/01/26 02:26:29;;;;;;;2.13;0.90;;;18.10;52.90;;;;;;6093371;23;20151;-85
2023/01/26 02:28:54;;;;;;;2.63;1.10;;;18.10;52.90;;;;;;6118979;23;20143;-86
2023/01/26 02:31:21;;;;;;;3.25;1.10;;;18.10;52.80;;;;;;6117941;23;20183;-85
2023/01/26 02:33:47;;;;;;;4.47;1.20;;;18.10;52.80;;;;;;6118651;23;20218;-84
2023/01/26 02:36:19;;;;;;;1.30;1.00;;;18.10;52.80;;;;;;6118284;23;20163;-85
2023/01/26 02:38:52;;;;;;;2.00;1.20;;;18.10;52.90;;;;;;6094454;23;20143;-85
2023/01/26 02:43:58;;;;;;;2.63;1.10;;;18.00;53.00;;;;;;6144939;23;20136;-85
2023/01/26 02:46:23;;;;;;;1.75;1.10;;;18.00;53.10;;;;;;6117533;23;20146;-85
2023/01/26 02:51:28;;;;;;;3.25;0.85;;;18.00;53.10;;;;;;6145074;23;20163;-84
2023/01/26 02:53:53;;;;;;;2.78;1.20;;;18.00;53.00;;;;;;6094267;23;20171;-85
2023/01/26 02:56:24;;;;;;;2.97;1.20;;;18.00;53.10;;;;;;6117806;23;20128;-84
2023/01/26 02:58:51;;;;;;;2.78;1.00;;;18.00;53.10;;;;;;6117821;23;20479;-84
2023/01/26 03:01:16;;;;;;;2.70;1.00;;;18.00;53.10;;;;;;6093866;23;20150;-84
2023/01/26 03:03:47;;;;;;;1.98;0.90;;;18.00;53.00;;;;;;6094348;23;20151;-84
2023/01/26 03:06:14;;;;;;;2.25;1.20;;;18.00;53.10;;;;;;6141925;23;20181;-85
2023/01/26 03:08:42;;;;;;;2.50;1.10;;;18.00;52.90;;;;;;6094535;23;20148;-85
2023/01/26 03:11:07;;;;;;;3.30;1.23;;;18.00;52.90;;;;;;6118132;23;20159;-84
2023/01/26 03:13:40;;;;;;;1.77;1.05;;;18.00;53.00;;;;;;6092668;23;20214;-85
2023/01/26 03:16:08;;;;;;;4.35;1.15;;;18.00;53.00;;;;;;6093832;23;20143;-85
2023/01/26 03:29:17;;;;;;;2.20;1.10;;;18.00;53.00;;;;;;6123295;23;20136;-85
2023/01/26 03:31:44;;;;;;;1.92;1.05;;;18.00;53.10;;;;;;6117783;23;20231;-85
2023/01/26 03:34:10;;;;;;;3.70;0.90;;;18.00;53.10;;;;;;6118147;23;20186;-84
2023/01/26 03:36:36;;;;;;;3.65;0.90;;;18.00;53.20;;;;;;6142199;23;20131;-85
2023/01/26 03:39:05;;;;;;;2.72;1.10;;;17.90;53.00;;;;;;6118154;23;20127;-84
2023/01/26 03:57:39;;;;;;;1.77;1.08;;;18.00;53.10;;;;;;6123834;23;20132;-86
2023/01/26 04:00:07;;;;;;;1.48;0.95;;;17.90;53.10;;;;;;6117841;23;20158;-85
2023/01/26 04:10:50;;;;;;;2.30;0.98;;;17.90;53.10;;;;;;6145831;23;20199;-84
2023/01/26 04:23:57;;;;;;;3.03;1.27;;;17.90;53.30;;;;;;6123310;23;20143;-85
2023/01/26 04:26:33;;;;;;;2.85;1.05;;;17.90;53.30;;;;;;6095707;23;20152;-84
2023/01/26 04:29:07;;;;;;;1.75;1.08;;;17.90;53.20;;;;;;6098225;23;20249;-84
2023/01/26 04:31:33;;;;;;;2.55;1.15;;;17.90;53.40;;;;;;6119401;23;20174;-85
2023/01/26 04:34:00;;;;;;;1.98;0.90;;;17.90;53.40;;;;;;6120679;23;20147;-85
2023/01/26 04:36:25;;;;;;;1.83;1.00;;;17.80;53.50;;;;;;6096255;23;20228;-85
2023/01/26 04:38:51;;;;;;;2.10;1.20;;;17.80;53.50;;;;;;6096225;23;20155;-85
2023/01/26 04:41:17;;;;;;;2.05;1.20;;;17.80;53.50;;;;;;6095306;23;20155;-86
2023/01/26 04:43:43;;;;;;;2.30;1.08;;;17.80;53.40;;;;;;6119409;23;20559;-84
2023/01/26 04:46:09;;;;;;;3.95;1.10;;;17.80;53.50;;;;;;6096164;23;20163;-85
2023/01/26 04:48:35;;;;;;;1.75;1.10;;;17.80;53.50;;;;;;6095726;23;20238;-85
2023/01/26 04:51:05;;;;;;;2.60;1.08;;;17.80;53.50;;;;;;6119898;23;20198;-87
2023/01/26 04:53:31;;;;;;;1.98;0.90;;;17.80;53.50;;;;;;6119744;23;20128;-85
2023/01/26 04:55:57;;;;;;;1.45;0.90;;;17.80;53.50;;;;;;6119025;23;20139;-85
2023/01/26 04:58:23;;;;;;;3.08;1.10;;;17.80;53.40;;;;;;6143667;23;20191;-85
2023/01/26 05:00:51;;;;;;;3.85;0.95;;;17.90;53.60;;;;;;6119381;23;20571;-85
2023/01/26 05:03:17;;;;;;;2.55;1.00;;;17.80;53.50;;;;;;6095459;23;20159;-85
2023/01/26 05:05:43;;;;;;;1.75;1.05;;;17.80;53.50;;;;;;6096143;23;20140;-85
2023/01/26 05:08:10;;;;;;;3.08;1.08;;;17.80;53.30;;;;;;6119066;23;20147;-85
2023/01/26 05:10:37;;;;;;;2.10;0.95;;;17.80;53.50;;;;;;6096170;23;20149;-84
2023/01/26 05:13:02;;;;;;;2.10;1.20;;;17.80;53.60;;;;;;6095643;23;20251;-86
2023/01/26 05:15:32;;;;;;;3.17;1.17;;;17.80;53.50;;;;;;6119986;23;20189;-85
2023/01/26 05:17:59;;;;;;;2.40;0.93;;;17.80;53.60;;;;;;6118697;23;20539;-85
2023/01/26 05:20:25;;;;;;;2.97;1.10;;;17.80;53.50;;;;;;6095777;23;20271;-86
2023/01/26 05:22:53;;;;;;;3.45;1.08;;;17.80;53.60;;;;;;6095238;23;20155;-85
2023/01/26 05:25:19;;;;;;;3.60;1.25;;;17.80;53.50;;;;;;6119115;23;20638;-85
2023/01/26 05:27:46;;;;;;;1.60;0.82;;;17.80;53.60;;;;;;6120473;23;20147;-85
2023/01/26 05:30:12;;;;;;;1.88;1.10;;;17.80;53.60;;;;;;6095305;23;20190;-85
2023/01/26 05:32:38;;;;;;;1.67;0.98;;;17.80;53.60;;;;;;6094929;23;20206;-84
2023/01/26 05:35:07;;;;;;;2.28;1.00;;;17.80;53.50;;;;;;6119796;23;20179;-85
2023/01/26 05:37:33;;;;;;;1.63;1.08;;;17.80;53.40;;;;;;6118920;23;20159;-84
2023/01/26 05:40:00;;;;;;;1.70;0.95;;;17.80;53.40;;;;;;6094961;23;20147;-85
2023/01/26 05:42:27;;;;;;;2.70;0.90;;;17.80;53.40;;;;;;6119649;23;20148;-85
2023/01/26 05:44:53;;;;;;;1.70;1.05;;;17.80;53.40;;;;;;6118902;23;20140;-85
2023/01/26 05:47:20;;;;;;;2.33;0.90;;;17.80;53.40;;;;;;6117904;23;20140;-85
2023/01/26 05:49:46;;;;;;;2.15;1.17;;;17.70;53.50;;;;;;6119380;23;20140;-85
2023/01/26 05:52:14;;;;;;;2.58;0.90;;;17.80;53.40;;;;;;6119468;23;20694;-85
2023/01/26 05:54:41;;;;;;;2.33;1.10;;;17.80;53.30;;;;;;6095221;23;20159;-85
2023/01/26 05:57:08;;;;;;;1.33;0.95;;;17.80;53.40;;;;;;6119204;23;20128;-85
2023/01/26 05:59:34;;;;;;;2.03;1.10;;;17.80;53.50;;;;;;6095222;23;20238;-85
2023/01/26 06:02:00;;;;;;;1.45;1.08;;;17.80;53.60;;;;;;6119966;23;20187;-84
2023/01/26 06:04:26;;;;;;;1.67;0.98;;;17.80;53.50;;;;;;6094200;23;20487;-84
2023/01/26 06:06:53;;;;;;;2.00;1.08;;;17.70;53.50;;;;;;6119372;23;20212;-85
2023/01/26 06:09:20;;;;;;;2.35;0.95;;;17.70;53.50;;;;;;6095147;23;20148;-85
2023/01/26 06:11:45;;;;;;;2.67;1.17;;;17.80;53.60;;;;;;6118496;23;20202;-85
2023/01/26 06:14:13;;;;;;;2.72;0.93;;;17.80;53.60;;;;;;6118343;23;20135;-85
2023/01/26 06:16:39;;;;;;;1.40;0.82;;;17.80;53.60;;;;;;6093812;23;20146;-85
2023/01/26 06:19:05;;;;;;;1.52;0.90;;;17.80;53.70;;;;;;6118819;23;20143;-85
2023/01/26 06:21:31;;;;;;;3.15;0.85;;;17.70;53.70;;;;;;6094981;23;20178;-84
2023/01/26 06:23:59;;;;;;;2.25;1.08;;;17.70;53.60;;;;;;6094920;23;20234;-85
2023/01/26 06:26:28;;;;;;;2.47;1.10;;;17.80;53.70;;;;;;6095718;23;20151;-85
2023/01/26 06:28:54;;;;;;;2.20;1.10;;;17.70;53.80;;;;;;6095301;23;20154;-85
2023/01/26 06:31:22;;;;;;;1.13;1.00;;;17.70;53.70;;;;;;6095064;23;20234;-84
2023/01/26 06:33:50;;;;;;;2.10;1.08;;;17.70;53.70;;;;;;6094840;23;20170;-85
2023/01/26 06:36:15;;;;;;;1.50;0.90;;;17.70;53.80;;;;;;6094009;23;20147;-85
2023/01/26 06:38:49;;;;;;;2.47;1.00;;;17.70;53.70;;;;;;6094512;23;20159;-85
2023/01/26 06:41:15;;;;;;;2.35;0.98;;;17.70;53.70;;;;;;6094301;23;20155;-86
2023/01/26 06:43:44;;;;;;;1.90;0.90;;;17.70;53.80;;;;;;6118232;23;20135;-85
2023/01/26 06:46:10;;;;;;;2.15;1.13;;;17.60;53.70;;;;;;6119041;23;20144;-85
2023/01/26 06:48:36;;;;;;;2.45;0.93;;;17.70;53.80;;;;;;6094418;23;20667;-84
2023/01/26 06:51:24;;;;;;;1.65;1.10;;;17.70;53.90;;;;;;6119534;23;20171;-85
2023/01/26 06:53:54;;;;;;;1.73;1.00;;;17.60;53.70;;;;;;6103201;23;20140;-85
2023/01/26 06:56:22;;;;;;;2.92;1.15;;;17.70;53.70;;;;;;6118293;23;20152;-85
2023/01/26 06:58:48;;;;;;;1.40;0.90;;;17.80;53.90;;;;;;6119258;23;20563;-85
2023/01/26 07:01:18;;;;;;;3.25;1.05;;;17.70;53.70;;;;;;6093746;23;20200;-86
2023/01/26 07:03:48;;;;;;;1.80;0.90;;;17.70;53.90;;;;;;6094596;23;20154;-85
2023/01/26 07:06:14;;;;;;;1.77;0.85;;;17.70;53.80;;;;;;6143154;23;20132;-85
2023/01/26 07:08:41;;;;;;;4.30;0.90;;;17.70;53.90;;;;;;6094483;23;20155;-84
2023/01/26 07:11:08;;;;;;;2.35;1.33;;;17.70;54.00;;;;;;6094023;23;20175;-85
2023/01/26 07:13:38;;;;;;;3.47;1.17;;;17.60;53.90;;;;;;6093847;23;20622;-86
2023/01/26 07:16:06;;;;;;;2.00;0.90;;;17.70;53.90;;;;;;6095203;23;20570;-85
2023/01/26 07:18:32;;;;;;;3.38;1.08;;;17.70;54.60;;;;;;6143799;23;20142;-84
2023/01/26 07:21:00;;;;;;;2.03;1.10;;;17.70;53.80;;;;;;6094364;23;20212;-85
2023/01/26 07:23:26;;;;;;;2.90;0.75;;;17.70;54.00;;;;;;6094543;23;20156;-85
2023/01/26 07:25:54;;;;;;;2.30;1.00;;;17.70;53.90;;;;;;6095038;23;20242;-85
2023/01/26 07:28:20;;;;;;;1.45;0.98;;;17.70;53.90;;;;;;6118248;23;20132;-84
2023/01/26 07:30:47;;;;;;;2.05;0.93;;;17.60;53.80;;;;;;6118401;23;20210;-84
2023/01/26 07:33:13;;;;;;;2.90;1.00;;;17.70;53.90;;;;;;6119386;23;20132;-84
2023/01/26 07:35:40;;;;;;;0.88;0.80;;;17.70;53.70;;;;;;6116186;23;20155;-83
2023/01/26 07:38:06;;;;;;;1.98;0.82;;;17.70;53.50;;;;;;6089875;23;20156;-85
2023/01/26 07:40:33;;;;;;;1.70;0.80;;;17.80;53.40;;;;;;6090890;23;20234;-84
2023/01/26 07:43:00;;;;;;;1.63;0.77;;;17.90;53.20;;;;;;6139158;23;20670;-85
2023/01/26 07:45:26;;;;;;;1.85;0.98;;;17.90;53.10;;;;;;6139356;23;20128;-85
2023/01/26 07:47:55;;;;;;;2.00;1.08;;;18.00;53.10;;;;;;6137511;23;20309;-85
2023/01/26 07:50:20;;;;;;;1.33;0.80;;;18.00;53.00;;;;;;6114450;23;20155;-85
2023/01/26 07:52:48;;;;;;;2.70;0.80;;;18.00;53.00;;;;;;6118440;23;20588;-85
2023/01/26 07:55:15;;;;;;;1.30;0.90;;;18.10;53.00;;;;;;6142168;23;20151;-84
2023/01/26 07:57:47;;;;;;;1.60;0.90;;;18.00;53.00;;;;;;6094049;23;20190;-84
2023/01/26 08:00:14;;;;;;;1.77;0.85;;;18.00;53.00;;;;;;6119535;23;20159;-85
2023/01/26 08:02:40;;;;;;;1.17;0.70;;;18.10;52.80;;;;;;6095863;23;20238;-85
2023/01/26 08:05:06;;;;;;;1.13;0.80;;;18.10;52.60;;;;;;6120178;23;20547;-85
2023/01/26 08:07:32;;;;;;;1.25;0.90;;;18.20;52.60;;;;;;6093658;23;20163;-84
2023/01/26 08:09:58;;;;;;;3.13;0.90;;;18.10;52.60;;;;;;6091705;23;20162;-84
2023/01/26 08:12:24;;;;;;;1.77;0.95;;;18.20;52.50;;;;;;6117143;23;20207;-84
2023/01/26 08:14:50;;;;;;;1.08;0.80;;;18.20;52.70;;;;;;6094005;23;20159;-84
2023/01/26 08:17:17;;;;;;;1.00;0.70;;;18.10;52.70;;;;;;6117040;23;20474;-84
2023/01/26 08:19:45;;;;;;;0.77;0.68;;;18.00;52.70;;;;;;6096236;23;20150;-83
2023/01/26 08:22:10;;;;;;;1.35;0.60;;;18.10;52.80;;;;;;6097742;23;20274;-84
2023/01/26 08:24:38;;;;;;;1.75;0.70;;;18.10;52.80;;;;;;6122758;23;20151;-83
2023/01/26 08:27:10;;;;;;;1.48;0.95;;;18.10;52.90;;;;;;6122763;23;20147;-84
2023/01/26 08:29:36;;;;;;;2.10;0.85;;;18.10;52.70;;;;;;6119838;23;20143;-85
2023/01/26 08:32:07;;;;;;;1.75;0.80;;;18.20;52.30;;;;;;6120092;23;20175;-85
2023/01/26 08:34:34;;;;;;;0.77;0.68;;;18.20;52.60;;;;;;6119010;23;20139;-84
2023/01/26 08:37:00;;;;;;;1.20;0.70;;;18.20;52.50;;;;;;6095668;23;20144;-84
2023/01/26 08:39:28;;;;;;;1.20;0.77;;;18.30;52.60;;;;;;6118785;23;20163;-85
2023/01/26 08:41:54;;;;;;;2.65;1.02;;;18.20;52.70;;;;;;6120543;23;20222;-85
2023/01/26 08:44:22;;;;;;;2.17;0.70;;;18.20;52.70;;;;;;6094801;23;20206;-85
2023/01/26 08:46:53;;;;;;;1.45;0.80;;;18.20;52.70;;;;;;6096771;23;20170;-85
2023/01/26 08:49:18;;;;;;;2.33;0.75;;;18.20;52.60;;;;;;6097882;23;20139;-84
2023/01/26 08:51:44;;;;;;;0.95;0.80;;;18.20;52.70;;;;;;6097179;23;20174;-86
2023/01/26 08:54:10;;;;;;;2.33;0.80;;;18.20;52.80;;;;;;6121064;23;20196;-84
2023/01/26 08:56:37;;;;;;;1.67;0.60;;;18.20;52.70;;;;;;6098136;23;20166;-84
2023/01/26 08:59:05;;;;;;;4.07;0.82;;;18.20;52.70;;;;;;6095146;23;20140;-84
2023/01/26 09:01:32;;;;;;;6.82;1.13;;;18.20;52.70;;;;;;6144888;23;20136;-85
2023/01/26 09:04:01;;;;;;;3.17;0.75;;;18.20;52.80;;;;;;6120730;23;20162;-84
2023/01/26 09:06:29;;;;;;;4.88;0.70;;;18.20;53.30;;;;;;6096786;23;20168;-85
2023/01/26 09:08:57;;;;;;;1.95;0.60;;;18.20;52.80;;;;;;6097846;23;20143;-85
2023/01/26 09:11:23;;;;;;;3.47;0.80;;;18.20;52.80;;;;;;6145177;23;20171;-85
2023/01/26 09:13:55;;;;;;;1.00;0.82;;;18.20;52.80;;;;;;6121629;23;20190;-84
2023/01/26 09:16:23;;;;;;;5.13;0.93;;;18.20;52.60;;;;;;6112296;23;20128;-84
2023/01/26 09:18:51;;;;;;;4.15;0.68;;;18.30;52.60;;;;;;6120982;23;20170;-84
2023/01/26 09:21:22;;;;;;;3.22;0.80;;;18.30;52.70;;;;;;6097019;23;20151;-84
2023/01/26 09:23:48;;;;;;;11.02;1.35;;;18.30;52.50;;;;;;6120901;23;20151;-84
2023/01/26 09:26:15;;;;;;;4.32;0.80;;;18.30;52.70;;;;;;6119684;23;20143;-84
2023/01/26 09:28:41;;;;;;;7.40;0.88;;;18.30;52.70;;;;;;6144833;23;20211;-85
2023/01/26 09:31:10;;;;;;;5.45;0.98;;;18.30;53.40;;;;;;6096085;23;20179;-85
2023/01/26 09:33:36;;;;;;;6.13;0.95;;;18.30;53.00;;;;;;6096144;23;20455;-86
2023/01/26 09:36:05;;;;;;;9.02;0.93;;;18.30;52.90;;;;;;6119582;23;20194;-85
2023/01/26 09:38:33;;;;;;;7.18;0.80;;;18.30;53.10;;;;;;6121237;23;20139;-85
2023/01/26 09:41:05;;;;;;;2.45;0.65;;;18.30;52.80;;;;;;6095366;23;20570;-84
2023/01/26 09:43:38;;;;;;;10.70;1.42;;;18.30;52.80;;;;;;6120237;23;20147;-85
2023/01/26 09:46:22;;;;;;;7.50;1.40;;;18.40;53.00;;;;;;6121024;23;20154;-84
2023/01/26 09:49:00;;;;;;;9.50;1.25;;;18.40;53.00;;;;;;6142655;23;20147;-83
2023/01/26 09:51:32;;;;;;;11.27;1.08;;;18.40;53.00;;;;;;6095531;23;20203;-82
2023/01/26 09:54:11;;;;;;;7.32;1.40;;;18.40;52.80;;;;;;6095219;23;20155;-84
2023/01/26 09:56:37;;;;;;;6.40;0.93;;;18.40;53.20;;;;;;6120262;23;20147;-84
2023/01/26 09:59:21;;;;;;;5.15;0.98;;;18.40;52.90;;;;;;6145587;23;20127;-84
2023/01/26 10:01:55;;;;;;;7.72;1.17;;;18.40;53.00;;;;;;6100079;23;20163;-84
2023/01/26 10:04:28;;;;;;;5.72;1.20;;;18.40;53.20;;;;;;6146253;23;20135;-84
2023/01/26 10:06:55;;;;;;;7.80;1.20;;;18.40;53.20;;;;;;6094767;23;20154;-83
2023/01/26 10:09:28;;;;;;;6.40;1.23;;;18.40;53.00;;;;;;6119984;23;20135;-84
2023/01/26 10:11:57;;;;;;;9.52;0.90;;;18.50;53.30;;;;;;6118359;23;20258;-84
2023/01/26 10:14:38;;;;;;;3.80;0.95;;;18.50;53.30;;;;;;6118574;23;20150;-84
2023/01/26 10:17:15;;;;;;;5.28;0.80;;;18.40;53.30;;;;;;6120287;23;20143;-84
2023/01/26 10:19:43;;;;;;;8.73;0.90;;;18.60;52.60;;;;;;6121783;23;20143;-85
2023/01/26 10:22:19;;;;;;;5.15;0.85;;;18.60;52.50;;;;;;6095865;23;20155;-84
2023/01/26 10:24:46;;;;;;;4.63;1.00;;;18.60;52.60;;;;;;6097469;23;20170;-84
2023/01/26 10:27:13;;;;;;;3.90;0.85;;;18.60;52.30;;;;;;6119660;23;20155;-84
2023/01/26 10:29:40;;;;;;;3.22;0.80;;;18.70;52.40;;;;;;6118831;23;20159;-84
2023/01/26 10:32:12;;;;;;;5.88;1.00;;;18.70;52.30;;;;;;6093804;23;20167;-85
2023/01/26 10:34:39;;;;;;;4.22;1.17;;;18.70;52.60;;;;;;6140726;23;20211;-85
2023/01/26 10:37:26;;;;;;;4.95;0.60;;;18.70;52.70;;;;;;6095701;23;20525;-85
2023/01/26 10:40:01;;;;;;;4.93;0.70;;;18.70;52.90;;;;;;6120247;23;20475;-86
2023/01/26 10:42:28;;;;;;;4.20;0.88;;;18.70;52.70;;;;;;6119349;23;20194;-85
2023/01/26 10:44:58;;;;;;;4.95;0.70;;;18.80;52.60;;;;;;6096241;23;20639;-86
2023/01/26 10:47:24;;;;;;;3.70;1.02;;;18.70;52.60;;;;;;6096031;23;20163;-85
2023/01/26 10:49:50;;;;;;;7.25;1.10;;;18.60;52.70;;;;;;6120714;23;20139;-85
2023/01/26 10:52:26;;;;;;;4.50;1.27;;;18.70;53.30;;;;;;6122000;23;20159;-84
2023/01/26 10:55:13;;;;;;;4.07;0.95;;;18.70;52.30;;;;;;6146784;23;20127;-86
2023/01/26 10:57:43;;;;;;;2.53;0.50;;;18.70;52.50;;;;;;6122088;23;20135;-85
2023/01/26 11:00:27;;;;;;;6.28;0.85;;;18.70;52.20;;;;;;6087722;23;20153;-84
2023/01/26 11:02:55;;;;;;;4.32;0.70;;;18.70;52.30;;;;;;6079115;23;20161;-85
2023/01/26 11:05:26;;;;;;;3.00;0.77;;;18.80;52.30;;;;;;6010133;23;20526;-85
2023/01/26 11:07:59;;;;;;;2.03;0.70;;;18.80;52.00;;;;;;6035664;23;20158;-85
2023/01/26 11:10:31;;;;;;;3.53;0.80;;;18.80;51.80;;;;;;6057634;23;20160;-85
2023/01/26 11:13:16;;;;;;;1.77;0.70;;;18.70;52.10;;;;;;6019893;23;20273;-85
2023/01/26 11:15:47;;;;;;;3.45;0.90;;;18.80;52.00;;;;;;6004608;23;20222;-85
2023/01/26 11:18:38;;;;;;;3.33;0.60;;;18.80;52.10;;;;;;5981991;23;20233;-85
2023/01/26 11:21:10;;;;;;;1.65;0.60;;;18.80;52.10;;;;;;6004718;23;20162;-84
2023/01/26 11:24:16;;;;;;;2.63;0.60;;;18.70;51.90;;;;;;6004796;23;20164;-85
2023/01/26 11:27:19;;;;;;;1.83;0.70;;;18.70;52.00;;;;;;6030566;23;20206;-84
2023/01/26 11:30:10;;;;;;;1.05;0.82;;;18.70;51.90;;;;;;5988712;23;20158;-84
2023/01/26 11:33:03;;;;;;;2.47;0.50;;;18.70;51.90;;;;;;6033866;23;20248;-85
2023/01/26 11:35:51;;;;;;;1.83;0.90;;;18.80;51.80;;;;;;6094148;23;20151;-85
2023/01/26 11:38:39;;;;;;;3.95;0.70;;;18.80;52.10;;;;;;6119739;23;20160;-84
2023/01/26 11:41:39;;;;;;;3.70;0.63;;;18.80;52.10;;;;;;6097485;23;20238;-84
2023/01/26 11:44:39;;;;;;;3.03;0.50;;;18.80;51.80;;;;;;6056067;23;20181;-83
2023/01/26 11:47:20;;;;;;;1.15;0.40;;;18.80;51.60;;;;;;6055497;23;20217;-85
2023/01/26 11:50:10;;;;;;;1.90;0.60;;;18.90;51.50;;;;;;6083444;23;20141;-85
2023/01/26 11:52:50;;;;;;;1.30;0.70;;;18.80;51.60;;;;;;6054496;23;20184;-84
2023/01/26 11:55:45;;;;;;;4.13;0.70;;;18.70;52.10;;;;;;6058694;23;20188;-84
2023/01/26 11:58:29;;;;;;;2.10;0.50;;;18.80;51.40;;;;;;6075733;23;20173;-84
2023/01/26 12:01:06;;;;;;;1.95;0.57;;;18.80;51.30;;;;;;6055995;23;20150;-83
2023/01/26 12:03:49;;;;;;;1.35;0.47;;;18.80;51.20;;;;;;6080602;23;20165;-83
2023/01/26 12:06:17;;;;;;;0.85;0.50;;;18.70;51.40;;;;;;6033451;23;20150;-84
2023/01/26 12:08:49;;;;;;;1.20;0.40;;;18.70;51.20;;;;;;6032072;23;20167;-84
2023/01/26 12:11:29;;;;;;;0.40;0.40;;;18.70;51.00;;;;;;6032126;23;20181;-85
2023/01/26 12:14:42;;;;;;;;;;;;;;;;;;;;;
2023/01/26 12:20:49;;;;;;;0.70;0.50;;;18.70;51.00;;;;;;5968029;24;20175;-84
2023/01/26 12:24:04;;;;;;;2.10;0.55;;;18.70;51.00;;;;;;5920142;24;20231;-85
2023/01/26 12:27:52;;;;;;;;;;;;;;;;;;;;;
2023/01/26 12:30:42;;;;;;;2.78;0.57;;;18.70;50.80;;;;;;5852822;24;20174;-83
2023/01/26 12:33:15;;;;;;;1.08;0.50;;;18.80;50.80;;;;;;5860320;24;20646;-85
2023/01/26 12:36:11;;;;;;;2.78;0.52;;;18.70;50.60;;;;;;5839171;24;20157;-84
2023/01/26 12:39:06;;;;;;;4.03;0.70;;;18.70;51.40;;;;;;5844521;24;20155;-85
2023/01/26 12:42:00;;;;;;;5.28;0.73;;;18.70;50.60;;;;;;5881307;24;20158;-86
2023/01/26 12:44:49;;;;;;;5.03;0.60;;;18.80;50.80;;;;;;5895902;24;20171;-85
2023/01/26 12:47:59;;;;;;;;;;;;;;;;;;;;;
2023/01/26 12:57:30;;;;;;;;;;;;;;;;;;;;;
2023/01/26 13:01:33;;;;;;;7.18;0.90;;;18.80;49.90;;;;;;5870569;24;20158;-86
2023/01/26 13:03:38;;;;;;;7.82;0.65;;;18.90;50.20;;;;;;5871590;24;20191;-84
2023/01/26 13:06:23;;;;;;;4.60;1.10;;;18.80;50.20;;;;;;5851701;24;20183;-83
2023/01/26 13:09:03;;;;;;;8.13;0.70;;;18.90;50.00;;;;;;5880848;24;20162;-84
2023/01/26 13:11:42;;;;;;;8.65;0.80;;;18.90;50.00;;;;;;5932650;24;20216;-87
2023/01/26 13:15:55;;;;;;;11.05;0.70;;;19.00;49.70;;;;;;5864025;24;20206;-87
2023/01/26 13:18:03;;;;;;;6.22;0.70;;;19.00;49.70;;;;;;5807127;24;20155;-85
2023/01/26 13:20:49;;;;;;;7.25;0.90;;;18.90;50.70;;;;;;5887772;24;20159;-84
2023/01/26 13:23:40;;;;;;;5.25;0.85;;;18.90;49.60;;;;;;5933809;24;20165;-84
2023/01/26 13:26:14;;;;;;;5.47;0.73;;;18.90;50.00;;;;;;5913945;24;20528;-85
2023/01/26 13:28:46;;;;;;;2.35;0.50;;;18.80;50.00;;;;;;5937132;24;20467;-85
2023/01/26 13:31:30;;;;;;;6.35;0.70;;;18.90;49.40;;;;;;5958438;24;20180;-84
2023/01/26 13:33:59;;;;;;;3.42;0.55;;;18.90;49.50;;;;;;5988168;23;20184;-85
2023/01/26 13:36:25;;;;;;;5.82;0.70;;;18.90;49.50;;;;;;6026619;23;20138;-85
2023/01/26 13:39:26;;;;;;;2.30;0.50;;;18.90;49.80;;;;;;6026512;23;20242;-84
2023/01/26 13:41:52;;;;;;;3.75;0.70;;;18.90;49.90;;;;;;6034412;23;20181;-85
2023/01/26 13:44:30;;;;;;;1.90;0.63;;;19.00;50.00;;;;;;6005855;23;20225;-83
2023/01/26 13:47:01;;;;;;;3.47;0.50;;;18.90;50.00;;;;;;5941579;24;20159;-84
2023/01/26 13:49:36;;;;;;;3.72;0.52;;;19.00;49.90;;;;;;5994184;23;20206;-83
2023/01/26 13:52:15;;;;;;;2.83;0.50;;;19.00;49.70;;;;;;5982504;23;20222;-83
2023/01/26 13:54:47;;;;;;;2.00;0.47;;;19.10;49.30;;;;;;5986245;23;20193;-86
2023/01/26 13:57:32;;;;;;;4.10;0.50;;;19.10;49.40;;;;;;6008532;23;20165;-83
2023/01/26 14:00:05;;;;;;;6.25;0.60;;;19.00;49.60;;;;;;5969618;24;20242;-85
2023/01/26 14:03:04;;;;;;;3.35;0.52;;;19.00;49.60;;;;;;5925336;24;20184;-83
2023/01/26 14:05:43;;;;;;;5.55;1.13;;;19.00;49.80;;;;;;5909381;24;20161;-83
2023/01/26 14:08:17;;;;;;;2.25;0.60;;;19.00;49.20;;;;;;5889543;24;20183;-82
2023/01/26 14:10:56;;;;;;;5.72;0.70;;;19.00;49.20;;;;;;5886948;24;20160;-82
2023/01/26 14:13:41;;;;;;;5.95;0.73;;;19.00;49.60;;;;;;5860799;24;20194;-84
2023/01/26 14:16:31;;;;;;;1.52;0.60;;;19.00;49.30;;;;;;5860685;24;20180;-82